ESOE/ORB METAR and TAF weather

Enter ICAO airport designator
Station Type Date Time Source
ESOE METAR 2019/08/19 22:50 UTC NOAA

ESOE 192250Z 21007KT CAVOK 14/11 Q1011


Station Type Date Time Source
ESOE Decoded METAR 2019/08/19 22:50 UTC NOAA

Orebro Private , Sweden (ESOE) 59-14N 015-03E
Aug 19, 2019 - 06:50 PM EDT / 2019.08.19 2250 UTC
Wind: from the SSW (210 degrees) at 8 MPH (7 KT):0
Visibility: greater than 7 mile(s):0
Temperature: 57 F (14 C)
Dew Point: 51 F (11 C)
Relative Humidity: 82%
Pressure (altimeter): 29.85 in. Hg (1011 hPa)
ob: ESOE 192250Z 21007KT CAVOK 14/11 Q1011
cycle: 23

Station Type Date Time Source
ESOE TAF 2016/03/16 04:36 UTC NOAA

TAF TAF ESOE 160330Z 1604/1624 23005KT 9000 BR NSC PROB40 1604/1607 1200 BR

Example: see airport list